Sunday, November 19, 2017, 10:38 AM GMT
Back to Local

CWPS, Long Point Meteorological Aeronautical Presentation System

Location: , , Canada Lat: 42.567
Local Time: 10:38 AM GMT (10:38 GMT) Lon: -80.05
Time Zone: GMT Elev: 574 ft

Show me the last for .
Show Coded

Time T Td Feel RH Dir Speed Gust Alt SLP Vis Weather Sky Remarks
2017-11-19 09:00 40 33 27 76 260° 35 - - 29.46 0 Peak wind: 42 mph (37 kts) from 250° at 38 min
Pressure rising rapidly
2017-11-19 08:00 38 35 25 86 250° 30 36 - 29.40 0 Peak wind: 42 mph (37 kts) from 270° at 10 min
Pressure rising rapidly
2017-11-19 07:00 38 36 24 93 270° 36 43 - 29.29 0 Peak wind: 43 mph (38 kts) from 280° at 23 min
Pressure rising rapidly
2017-11-19 06:00 41 39 28 92 280° 36 41 - 29.21 0 Peak wind: 49 mph (43 kts) from 280° at 12 min
Pressure rising rapidly
2017-11-19 05:00 44 40 32 87 290° 38 44 - 29.13 0 Peak wind: 44 mph (39 kts) from 300° at 46 min
Pressure rising rapidly
2017-11-19 04:00 47 46 39 94 300° 26 - - 29.06 0 Peak wind: 31 mph (27 kts) from 300° at 57 min
2017-11-19 03:00 50 49 47 95 250° 8 - - 29.08 0 None
2017-11-19 02:00 50 49 - 94 220° 1 - - 29.07 0 None
2017-11-19 01:00 50 49 - 93 240° 7 - - 29.13 0 None
2017-11-19 00:00 52 50 - 92 190° 8 - - 29.16 0 None
2017-11-18 23:00 50 48 45 92 120° 15 - - 29.20 0 Peak wind: 23 mph (20 kts) from 130° at 02 min
2017-11-18 22:00 49 46 43 86 130° 22 - - 29.22 0 Peak wind: 24 mph (21 kts) from 140° at 26 min
2017-11-18 21:00 49 46 41 89 140° 23 29 - 29.28 0 Peak wind: 31 mph (27 kts) from 130° at 27 min
2017-11-18 20:00 49 46 41 88 140° 28 - - 29.30 0 Peak wind: 31 mph (27 kts) from 140° at 55 min
2017-11-18 19:00 49 46 41 89 140° 23 - - 29.34 0 Peak wind: 32 mph (28 kts) from 150° at 00 min
2017-11-18 18:00 49 44 41 84 160° 29 - - 29.39 0 Peak wind: 35 mph (31 kts) from 160° at 23 min
2017-11-18 17:00 48 44 40 84 160° 29 - - 29.45 0 Peak wind: 34 mph (30 kts) from 160° at 47 min
2017-11-18 16:00 49 44 40 83 160° 28 - - 29.48 0 Peak wind: 37 mph (33 kts) from 160° at 00 min
2017-11-18 15:00 48 43 38 83 160° 33 39 - 29.47 0 Peak wind: 41 mph (36 kts) from 170° at 05 min
2017-11-18 14:00 48 43 39 82 170° 35 - - 29.52 0 Peak wind: 43 mph (38 kts) from 170° at 12 min
2017-11-18 13:00 48 43 38 82 170° 36 - - 29.52 0 Peak wind: 44 mph (39 kts) from 160° at 12 min
2017-11-18 12:00 46 42 36 84 160° 38 - - 29.54 0 Peak wind: 43 mph (38 kts) from 160° at 54 min
2017-11-18 11:00 46 40 36 79 160° 33 - - 29.59 0 Peak wind: 39 mph (34 kts) from 160° at 45 min

Support USWX by starting your Amazon purchase here.